Time;durP1;ratioP1;P1;durP2;ratioP2;P2;SDS_P1;SDS_P2;PMS_P1;PMS_P2;Temp;Humidity;BMP_temperature;BMP_pressure;BME280_temperature;BME280_humidity;BME280_pressure;Samples;Min_cycle;Max_cycle;Signal;HPM_P1;HPM_P2
2021/01/19 00:02:36;;;;;;;99.60;53.50;;;;;;;;;;5131761;28;20623;-75
2021/01/19 00:05:42;;;;;;;106.20;55.65;;;;;;;;;;5131874;28;20050;-75
2021/01/19 00:08:46;;;;;;;100.80;55.90;;;;;;;;;;5131309;28;20038;-74
2021/01/19 00:11:51;;;;;;;102.22;52.53;;;;;;;;;;5131953;28;20057;-74
2021/01/19 00:14:55;;;;;;;98.38;53.60;;;;;;;;;;5131699;28;20046;-75
2021/01/19 00:18:00;;;;;;;82.13;45.58;;;;;;;;;;5131678;28;20054;-75
2021/01/19 00:21:05;;;;;;;79.10;46.10;;;;;;;;;;5118842;28;20047;-75
2021/01/19 00:24:09;;;;;;;77.78;41.53;;;;;;;;;;5131842;28;20046;-75
2021/01/19 00:27:14;;;;;;;92.45;49.92;;;;;;;;;;5119036;28;20399;-75
2021/01/19 00:30:18;;;;;;;81.20;46.28;;;;;;;;;;5118911;28;20054;-75
2021/01/19 00:33:23;;;;;;;71.28;42.38;;;;;;;;;;5135505;27;20034;-75
2021/01/19 00:36:27;;;;;;;77.53;42.72;;;;;;;;;;5135281;27;20042;-75
2021/01/19 00:39:31;;;;;;;73.57;41.28;;;;;;;;;;5135466;27;20042;-75
2021/01/19 00:42:37;;;;;;;68.93;38.58;;;;;;;;;;5135090;27;20642;-75
2021/01/19 00:45:41;;;;;;;69.05;38.70;;;;;;;;;;5135384;27;20042;-75
2021/01/19 00:48:46;;;;;;;64.05;36.83;;;;;;;;;;5122287;27;20046;-75
2021/01/19 00:51:50;;;;;;;69.10;37.85;;;;;;;;;;5135120;27;20402;-75
2021/01/19 00:54:54;;;;;;;65.05;34.35;;;;;;;;;;5122128;27;20046;-75
2021/01/19 00:57:58;;;;;;;56.40;32.80;;;;;;;;;;5122362;27;20042;-75
2021/01/19 01:01:07;;;;;;;55.83;30.85;;;;;;;;;;5122105;27;20121;-75
2021/01/19 01:04:12;;;;;;;61.40;33.97;;;;;;;;;;5134620;27;20502;-75
2021/01/19 01:07:16;;;;;;;69.25;35.60;;;;;;;;;;5134727;27;20058;-75
2021/01/19 01:10:21;;;;;;;67.85;33.33;;;;;;;;;;5121532;27;20058;-75
2021/01/19 01:13:25;;;;;;;54.85;30.50;;;;;;;;;;5134741;27;20039;-74
2021/01/19 01:16:29;;;;;;;45.42;26.55;;;;;;;;;;5134798;27;20042;-75
2021/01/19 01:19:34;;;;;;;46.20;25.55;;;;;;;;;;5134597;27;20497;-75
2021/01/19 01:22:45;;;;;;;47.95;26.05;;;;;;;;;;5134599;27;20046;-75
2021/01/19 01:25:49;;;;;;;55.80;28.10;;;;;;;;;;5134505;27;20046;-75
2021/01/19 01:28:54;;;;;;;59.05;31.27;;;;;;;;;;5134505;27;20046;-75
2021/01/19 01:31:58;;;;;;;58.03;29.17;;;;;;;;;;5134300;27;20050;-75
2021/01/19 01:35:03;;;;;;;54.70;30.73;;;;;;;;;;5121469;27;20421;-75
2021/01/19 01:38:07;;;;;;;61.72;33.42;;;;;;;;;;5134043;27;20046;-75
2021/01/19 01:41:14;;;;;;;52.80;29.40;;;;;;;;;;5134079;27;20046;-75
2021/01/19 01:44:19;;;;;;;63.00;33.13;;;;;;;;;;5133033;27;20050;-75
2021/01/19 01:47:24;;;;;;;61.40;36.72;;;;;;;;;;5121214;27;20655;-75
2021/01/19 01:50:29;;;;;;;69.25;38.70;;;;;;;;;;5133988;27;20046;-75
2021/01/19 01:53:33;;;;;;;70.13;38.50;;;;;;;;;;5133761;27;20043;-75
2021/01/19 01:56:38;;;;;;;67.45;37.35;;;;;;;;;;5133861;27;20046;-75
2021/01/19 01:59:42;;;;;;;71.78;39.17;;;;;;;;;;5133709;27;20066;-75
2021/01/19 02:02:53;;;;;;;75.68;40.63;;;;;;;;;;5133442;27;20046;-75
2021/01/19 02:05:57;;;;;;;66.97;39.25;;;;;;;;;;5133850;27;20046;-75
2021/01/19 02:09:11;;;;;;;69.90;39.78;;;;;;;;;;5133053;27;20054;-75
2021/01/19 02:12:16;;;;;;;63.92;39.55;;;;;;;;;;5133649;27;20054;-75
2021/01/19 02:15:22;;;;;;;66.95;38.15;;;;;;;;;;5120559;27;20390;-75
2021/01/19 02:18:43;;;;;;;61.88;34.35;;;;;;;;;;5133529;27;20054;-75
2021/01/19 02:22:06;;;;;;;57.75;33.60;;;;;;;;;;5133385;27;20050;-74
2021/01/19 02:25:16;;;;;;;52.15;31.70;;;;;;;;;;5133390;27;20054;-75
2021/01/19 02:28:20;;;;;;;59.08;33.70;;;;;;;;;;5120540;27;20034;-75
2021/01/19 02:31:24;;;;;;;56.55;32.13;;;;;;;;;;5132961;27;20058;-74
2021/01/19 02:34:35;;;;;;;51.17;30.00;;;;;;;;;;5120177;27;20050;-74
2021/01/19 02:37:52;;;;;;;54.70;31.73;;;;;;;;;;5133114;27;20042;-74
2021/01/19 02:40:57;;;;;;;52.33;32.67;;;;;;;;;;5133263;27;20034;-74
2021/01/19 02:44:11;;;;;;;60.92;34.92;;;;;;;;;;5132886;27;20042;-75
2021/01/19 02:47:15;;;;;;;67.20;35.95;;;;;;;;;;5132883;27;20059;-75
2021/01/19 02:50:20;;;;;;;59.30;35.78;;;;;;;;;;5132814;27;20054;-75
2021/01/19 02:53:24;;;;;;;64.38;37.67;;;;;;;;;;5132939;27;20042;-75
2021/01/19 02:56:49;;;;;;;60.85;34.58;;;;;;;;;;5119257;27;20046;-75
2021/01/19 03:00:03;;;;;;;69.70;39.28;;;;;;;;;;5095456;27;20501;-75
2021/01/19 03:03:09;;;;;;;68.57;37.65;;;;;;;;;;5132784;27;20034;-75
2021/01/19 03:06:15;;;;;;;71.32;41.05;;;;;;;;;;5132324;27;20185;-75
2021/01/19 03:09:20;;;;;;;70.70;43.60;;;;;;;;;;5132290;27;20069;-75
2021/01/19 03:12:26;;;;;;;79.70;43.75;;;;;;;;;;5132411;27;20054;-75
2021/01/19 03:15:30;;;;;;;79.03;44.35;;;;;;;;;;5119733;27;20117;-75
2021/01/19 03:18:35;;;;;;;80.20;46.83;;;;;;;;;;5119895;27;20042;-75
2021/01/19 03:21:40;;;;;;;85.38;48.05;;;;;;;;;;5132136;27;20038;-75
2021/01/19 03:24:44;;;;;;;79.78;45.65;;;;;;;;;;5132205;27;20046;-74
2021/01/19 03:27:48;;;;;;;83.05;50.08;;;;;;;;;;5132282;27;20042;-74
2021/01/19 03:30:53;;;;;;;82.70;48.63;;;;;;;;;;5131990;27;20061;-75
2021/01/19 03:33:57;;;;;;;85.95;49.72;;;;;;;;;;5119311;28;20050;-74
2021/01/19 03:37:02;;;;;;;89.70;52.30;;;;;;;;;;5132390;28;20050;-75
2021/01/19 03:40:10;;;;;;;87.07;51.50;;;;;;;;;;5132349;28;20038;-74
2021/01/19 03:43:14;;;;;;;90.05;53.28;;;;;;;;;;5132187;28;20527;-75
2021/01/19 03:46:18;;;;;;;87.13;51.53;;;;;;;;;;5132031;28;20061;-75
2021/01/19 03:49:22;;;;;;;91.55;52.35;;;;;;;;;;5132205;28;20057;-74
2021/01/19 03:52:27;;;;;;;87.43;49.67;;;;;;;;;;5131705;28;20058;-75
2021/01/19 03:55:31;;;;;;;83.50;48.50;;;;;;;;;;5132154;28;20042;-74
2021/01/19 03:58:36;;;;;;;90.47;52.47;;;;;;;;;;5131885;28;20043;-75
2021/01/19 04:01:41;;;;;;;85.60;51.22;;;;;;;;;;5131830;28;20038;-75
2021/01/19 04:04:45;;;;;;;84.60;49.40;;;;;;;;;;5131713;28;20038;-75
2021/01/19 04:07:50;;;;;;;88.68;50.85;;;;;;;;;;5135435;27;20035;-75
2021/01/19 04:10:54;;;;;;;85.75;49.70;;;;;;;;;;5135336;27;20079;-75
2021/01/19 04:13:59;;;;;;;84.13;50.08;;;;;;;;;;5135493;27;20053;-75
2021/01/19 04:17:03;;;;;;;93.57;51.28;;;;;;;;;;5135645;27;20046;-75
2021/01/19 04:20:08;;;;;;;91.43;48.45;;;;;;;;;;5135959;27;20050;-74
2021/01/19 04:23:14;;;;;;;88.50;50.50;;;;;;;;;;5135413;27;20046;-75
2021/01/19 04:26:18;;;;;;;90.45;51.40;;;;;;;;;;5135528;27;20046;-75
2021/01/19 04:29:23;;;;;;;89.15;50.08;;;;;;;;;;5135592;27;20392;-75
2021/01/19 04:32:27;;;;;;;86.07;48.17;;;;;;;;;;5122946;27;20517;-75
2021/01/19 04:35:31;;;;;;;83.22;47.13;;;;;;;;;;5135503;27;20046;-75
2021/01/19 04:38:35;;;;;;;83.65;48.45;;;;;;;;;;5135314;27;20607;-75
2021/01/19 04:41:40;;;;;;;82.13;46.58;;;;;;;;;;5135224;27;20042;-74
2021/01/19 04:44:45;;;;;;;82.80;46.97;;;;;;;;;;5135263;27;20046;-75
2021/01/19 04:47:49;;;;;;;80.03;45.70;;;;;;;;;;5134951;27;20046;-75
2021/01/19 04:50:54;;;;;;;78.88;43.70;;;;;;;;;;5135067;27;20070;-74
2021/01/19 04:53:59;;;;;;;62.13;38.30;;;;;;;;;;5122433;27;20196;-75
2021/01/19 04:57:07;;;;;;;60.50;35.00;;;;;;;;;;5134940;27;20042;-74
2021/01/19 05:00:13;;;;;;;63.83;39.10;;;;;;;;;;5110580;27;20112;-75
2021/01/19 05:03:20;;;;;;;58.58;33.80;;;;;;;;;;5134590;27;20065;-75
2021/01/19 05:06:43;;;;;;;58.85;35.50;;;;;;;;;;5134818;27;20050;-75
2021/01/19 05:09:50;;;;;;;61.00;36.92;;;;;;;;;;5134494;27;20399;-75
2021/01/19 05:13:01;;;;;;;65.78;38.72;;;;;;;;;;5121849;27;20046;-75
2021/01/19 05:16:06;;;;;;;65.82;37.33;;;;;;;;;;5134697;27;20046;-75
2021/01/19 05:19:10;;;;;;;59.10;36.25;;;;;;;;;;5133396;27;20061;-75
2021/01/19 05:22:16;;;;;;;66.22;37.72;;;;;;;;;;5134648;27;20042;-75
2021/01/19 05:25:23;;;;;;;65.03;36.20;;;;;;;;;;5134418;27;20547;-74
2021/01/19 05:28:31;;;;;;;65.18;34.95;;;;;;;;;;5134278;27;20042;-75
2021/01/19 05:31:35;;;;;;;62.65;33.70;;;;;;;;;;5133941;27;20054;-74
2021/01/19 05:34:39;;;;;;;73.35;35.65;;;;;;;;;;5134244;27;20040;-75
2021/01/19 05:37:55;;;;;;;68.70;34.90;;;;;;;;;;5134338;27;20050;-75
2021/01/19 05:40:59;;;;;;;63.13;34.72;;;;;;;;;;5134146;27;20100;-75
2021/01/19 05:44:18;;;;;;;55.65;31.20;;;;;;;;;;5134109;27;20050;-75
2021/01/19 05:47:23;;;;;;;55.28;32.10;;;;;;;;;;5134119;27;20058;-75
2021/01/19 05:50:27;;;;;;;55.78;31.67;;;;;;;;;;5133990;27;20046;-74
2021/01/19 05:53:32;;;;;;;55.33;31.98;;;;;;;;;;5133784;27;20038;-74
2021/01/19 05:56:38;;;;;;;57.58;31.60;;;;;;;;;;5133796;27;20034;-75
2021/01/19 05:59:52;;;;;;;53.40;30.60;;;;;;;;;;5133882;27;20493;-75
2021/01/19 06:02:58;;;;;;;56.20;30.83;;;;;;;;;;5133538;27;20034;-75
2021/01/19 06:06:11;;;;;;;60.33;27.02;;;;;;;;;;5133809;27;20042;-75
2021/01/19 06:09:15;;;;;;;52.50;26.50;;;;;;;;;;5133569;27;20050;-75
2021/01/19 06:12:21;;;;;;;50.50;23.45;;;;;;;;;;5133180;27;20074;-75
2021/01/19 06:15:29;;;;;;;39.92;23.17;;;;;;;;;;5133274;27;20034;-75
2021/01/19 06:18:37;;;;;;;44.45;23.52;;;;;;;;;;5133362;27;20054;-75
2021/01/19 06:21:41;;;;;;;45.55;23.77;;;;;;;;;;5133142;27;20046;-74
2021/01/19 06:24:46;;;;;;;46.20;26.77;;;;;;;;;;5133287;27;20403;-75
2021/01/19 06:27:51;;;;;;;50.25;26.92;;;;;;;;;;5133254;27;20042;-74
2021/01/19 06:30:55;;;;;;;50.72;26.02;;;;;;;;;;5132396;27;20058;-74
2021/01/19 06:34:02;;;;;;;51.58;25.80;;;;;;;;;;5132651;27;20038;-75
2021/01/19 06:37:08;;;;;;;51.20;27.05;;;;;;;;;;5132939;27;20053;-75
2021/01/19 06:40:14;;;;;;;55.10;28.92;;;;;;;;;;5132915;27;20045;-74
2021/01/19 06:43:25;;;;;;;50.17;27.60;;;;;;;;;;5119985;27;20050;-75
2021/01/19 06:46:32;;;;;;;46.15;29.83;;;;;;;;;;5132837;27;20178;-74
2021/01/19 06:49:37;;;;;;;61.83;30.38;;;;;;;;;;5132867;27;20046;-75
2021/01/19 06:52:43;;;;;;;57.33;29.83;;;;;;;;;;5120036;27;20050;-75
2021/01/19 06:55:59;;;;;;;47.28;25.95;;;;;;;;;;5132364;27;20042;-75
2021/01/19 06:59:14;;;;;;;79.70;28.67;;;;;;;;;;5132788;27;20046;-75
2021/01/19 07:02:20;;;;;;;71.50;30.77;;;;;;;;;;5119888;27;20058;-74
2021/01/19 07:05:25;;;;;;;49.72;29.95;;;;;;;;;;5132578;27;20501;-72
2021/01/19 07:08:39;;;;;;;56.92;29.65;;;;;;;;;;5119812;27;20639;-72
2021/01/19 07:11:43;;;;;;;56.95;28.45;;;;;;;;;;5090513;28;20055;-74
2021/01/19 07:15:05;;;;;;;232.30;117.47;;;;;;;;;;5078782;28;20051;-75
2021/01/19 07:18:09;;;;;;;52.92;29.77;;;;;;;;;;5089983;28;20479;-74
2021/01/19 07:21:14;;;;;;;64.03;31.60;;;;;;;;;;5091145;28;20035;-76
2021/01/19 07:24:25;;;;;;;67.30;31.83;;;;;;;;;;5091527;28;20055;-73
2021/01/19 07:27:29;;;;;;;61.50;32.50;;;;;;;;;;5090852;28;20047;-73
2021/01/19 07:30:34;;;;;;;65.38;32.72;;;;;;;;;;5090248;28;20063;-73
2021/01/19 07:33:43;;;;;;;58.50;34.88;;;;;;;;;;5091012;28;20051;-72
2021/01/19 07:36:55;;;;;;;68.10;38.55;;;;;;;;;;5091029;28;20587;-71
2021/01/19 07:39:59;;;;;;;70.73;38.87;;;;;;;;;;5090877;28;20102;-73
2021/01/19 07:43:13;;;;;;;70.55;38.95;;;;;;;;;;5094963;28;20059;-74
2021/01/19 07:46:28;;;;;;;63.55;38.45;;;;;;;;;;5095368;28;20114;-73
2021/01/19 07:49:33;;;;;;;65.03;38.63;;;;;;;;;;5095108;28;20118;-73
2021/01/19 07:52:39;;;;;;;72.72;40.72;;;;;;;;;;5094842;28;20051;-69
2021/01/19 07:55:44;;;;;;;70.40;34.60;;;;;;;;;;5095111;28;20047;-72
2021/01/19 07:58:49;;;;;;;54.45;30.00;;;;;;;;;;5094675;28;20047;-73
2021/01/19 08:01:59;;;;;;;52.30;31.77;;;;;;;;;;5094188;28;20407;-72
2021/01/19 08:05:08;;;;;;;46.83;26.83;;;;;;;;;;5094971;28;20051;-73
2021/01/19 08:08:13;;;;;;;57.78;29.70;;;;;;;;;;5094813;28;20506;-73
2021/01/19 08:11:21;;;;;;;46.47;27.35;;;;;;;;;;5093703;28;20047;-73
2021/01/19 08:14:33;;;;;;;49.17;27.98;;;;;;;;;;5094501;28;20395;-73
2021/01/19 08:17:37;;;;;;;42.08;25.17;;;;;;;;;;5094470;28;20391;-73
2021/01/19 08:20:42;;;;;;;48.42;24.60;;;;;;;;;;5094399;28;20114;-73
2021/01/19 08:23:46;;;;;;;45.17;25.20;;;;;;;;;;5093581;28;20495;-73
2021/01/19 08:26:51;;;;;;;55.72;23.45;;;;;;;;;;5094708;28;20043;-73
2021/01/19 08:29:55;;;;;;;47.97;26.95;;;;;;;;;;5093778;28;20047;-73
2021/01/19 08:33:00;;;;;;;47.03;25.58;;;;;;;;;;5094349;28;20059;-73
2021/01/19 08:36:05;;;;;;;42.55;25.45;;;;;;;;;;5094414;28;20507;-73
2021/01/19 08:39:09;;;;;;;38.45;24.05;;;;;;;;;;5093938;28;20040;-73
2021/01/19 08:42:14;;;;;;;40.08;22.58;;;;;;;;;;5093041;28;20122;-73
2021/01/19 08:45:25;;;;;;;45.08;24.27;;;;;;;;;;5094091;28;20047;-73
2021/01/19 08:48:29;;;;;;;36.17;20.27;;;;;;;;;;5094557;28;20051;-74
2021/01/19 08:51:34;;;;;;;34.55;22.02;;;;;;;;;;5081637;28;20066;-74
2021/01/19 08:54:39;;;;;;;51.88;26.60;;;;;;;;;;5094179;28;20047;-74
2021/01/19 08:57:49;;;;;;;44.80;24.92;;;;;;;;;;5093154;28;20517;-73
2021/01/19 09:00:53;;;;;;;38.20;24.67;;;;;;;;;;5093979;28;20178;-73
2021/01/19 09:03:58;;;;;;;46.17;27.17;;;;;;;;;;5093416;28;20503;-73
2021/01/19 09:07:11;;;;;;;50.08;30.95;;;;;;;;;;5093572;28;20039;-73
2021/01/19 09:10:22;;;;;;;51.35;30.55;;;;;;;;;;5120101;27;20043;-74
2021/01/19 09:13:29;;;;;;;65.20;35.58;;;;;;;;;;5134189;27;20047;-73
2021/01/19 09:16:33;;;;;;;52.55;32.22;;;;;;;;;;5134264;27;20038;-74
2021/01/19 09:19:38;;;;;;;61.15;36.78;;;;;;;;;;5134386;27;20398;-74
2021/01/19 09:22:42;;;;;;;73.20;34.47;;;;;;;;;;5121401;27;20414;-72
2021/01/19 09:25:48;;;;;;;54.53;34.53;;;;;;;;;;5121876;27;20517;-74
2021/01/19 09:28:52;;;;;;;60.22;37.33;;;;;;;;;;5134279;27;20034;-74
2021/01/19 09:32:00;;;;;;;58.50;35.55;;;;;;;;;;5109662;27;20050;-73
2021/01/19 09:35:05;;;;;;;62.53;38.67;;;;;;;;;;5121597;27;20042;-75
2021/01/19 09:38:17;;;;;;;57.50;35.50;;;;;;;;;;5109736;27;20054;-75
2021/01/19 09:41:26;;;;;;;49.50;33.75;;;;;;;;;;5121393;27;20501;-74
2021/01/19 09:44:32;;;;;;;54.00;32.80;;;;;;;;;;5133958;27;20042;-73
2021/01/19 09:47:37;;;;;;;56.67;38.10;;;;;;;;;;5134053;27;20034;-80
2021/01/19 09:50:41;;;;;;;58.00;36.53;;;;;;;;;;5134307;27;20050;-77
2021/01/19 09:53:53;;;;;;;61.72;39.97;;;;;;;;;;5134001;27;20046;-74
2021/01/19 09:56:58;;;;;;;63.58;44.28;;;;;;;;;;5133554;27;20522;-73
2021/01/19 10:00:07;;;;;;;71.13;46.88;;;;;;;;;;5133437;27;20054;-73
2021/01/19 10:03:17;;;;;;;68.00;46.53;;;;;;;;;;5133188;27;20042;-72
2021/01/19 10:06:23;;;;;;;59.80;41.50;;;;;;;;;;5109021;27;20381;-75
2021/01/19 10:09:28;;;;;;;62.63;41.55;;;;;;;;;;5120882;27;20050;-83
2021/01/19 10:12:32;;;;;;;68.70;44.58;;;;;;;;;;5133916;27;20496;-72
2021/01/19 10:15:37;;;;;;;63.92;40.35;;;;;;;;;;5109194;27;20058;-74
2021/01/19 10:18:42;;;;;;;49.53;35.63;;;;;;;;;;5133424;27;20068;-74
2021/01/19 10:21:49;;;;;;;68.07;36.03;;;;;;;;;;5132039;27;20035;-74
2021/01/19 10:24:53;;;;;;;49.03;32.63;;;;;;;;;;5133043;27;20050;-74
2021/01/19 10:27:59;;;;;;;50.13;32.95;;;;;;;;;;5132703;27;20045;-74
2021/01/19 10:31:13;;;;;;;47.60;30.90;;;;;;;;;;5132593;27;20054;-72
2021/01/19 10:34:20;;;;;;;49.75;32.15;;;;;;;;;;5132598;27;20398;-74
2021/01/19 10:37:24;;;;;;;41.83;27.08;;;;;;;;;;5132886;27;20516;-74
2021/01/19 10:40:30;;;;;;;41.28;24.45;;;;;;;;;;5119866;27;20050;-73
2021/01/19 10:43:34;;;;;;;40.15;23.98;;;;;;;;;;5132580;27;20038;-77
2021/01/19 10:46:39;;;;;;;36.67;24.73;;;;;;;;;;5108392;27;20046;-76
2021/01/19 10:49:43;;;;;;;33.08;24.65;;;;;;;;;;5132621;27;20501;-76
2021/01/19 10:52:57;;;;;;;45.33;27.27;;;;;;;;;;5131904;27;20398;-72
2021/01/19 10:56:12;;;;;;;39.50;25.60;;;;;;;;;;5132100;27;20042;-76
2021/01/19 10:59:18;;;;;;;40.35;25.98;;;;;;;;;;5132307;27;20034;-73
2021/01/19 11:02:22;;;;;;;34.92;25.08;;;;;;;;;;5132312;27;20121;-73
2021/01/19 11:05:27;;;;;;;38.40;25.60;;;;;;;;;;5132156;27;20042;-74
2021/01/19 11:08:32;;;;;;;35.85;25.05;;;;;;;;;;5131617;27;20042;-76
2021/01/19 11:11:37;;;;;;;37.72;27.15;;;;;;;;;;5117902;27;20055;-76
2021/01/19 11:14:43;;;;;;;37.65;25.85;;;;;;;;;;5131867;27;20087;-72
2021/01/19 11:17:55;;;;;;;38.63;26.52;;;;;;;;;;5131483;27;20042;-74
2021/01/19 11:20:59;;;;;;;42.22;25.70;;;;;;;;;;5131837;27;20084;-75
2021/01/19 11:24:07;;;;;;;77.40;47.33;;;;;;;;;;5119230;27;20062;-74
2021/01/19 11:27:11;;;;;;;45.97;28.63;;;;;;;;;;5107664;27;20060;-74
2021/01/19 11:30:16;;;;;;;35.17;21.60;;;;;;;;;;5119584;27;20054;-72
2021/01/19 11:33:20;;;;;;;23.15;15.73;;;;;;;;;;5119183;27;20046;-74
2021/01/19 11:36:25;;;;;;;27.85;14.02;;;;;;;;;;5119437;28;20046;-76
2021/01/19 11:39:30;;;;;;;20.77;11.18;;;;;;;;;;5131755;28;20054;-76
2021/01/19 11:42:35;;;;;;;21.85;11.95;;;;;;;;;;5131662;28;20042;-74
2021/01/19 11:45:39;;;;;;;18.90;9.90;;;;;;;;;;5131819;28;20513;-76
2021/01/19 11:48:44;;;;;;;13.77;6.50;;;;;;;;;;5118789;28;20043;-77
2021/01/19 11:51:48;;;;;;;8.00;4.72;;;;;;;;;;5131928;28;20039;-78
2021/01/19 11:54:53;;;;;;;10.20;5.20;;;;;;;;;;5131752;28;20023;-76
2021/01/19 11:57:57;;;;;;;7.00;4.72;;;;;;;;;;5131751;28;20050;-75
2021/01/19 12:01:02;;;;;;;8.52;4.60;;;;;;;;;;5130671;28;20035;-75
2021/01/19 12:04:07;;;;;;;9.13;3.88;;;;;;;;;;5119316;28;20047;-75
2021/01/19 12:07:11;;;;;;;8.18;3.70;;;;;;;;;;5118735;28;20027;-75
2021/01/19 12:10:16;;;;;;;9.00;4.93;;;;;;;;;;5131289;28;20118;-75
2021/01/19 12:13:20;;;;;;;8.05;5.40;;;;;;;;;;5131668;28;20494;-75
2021/01/19 12:16:25;;;;;;;10.68;4.47;;;;;;;;;;5118115;28;20035;-75
2021/01/19 12:19:30;;;;;;;5.32;3.75;;;;;;;;;;5131738;28;20043;-75
2021/01/19 12:22:34;;;;;;;6.70;4.35;;;;;;;;;;5131701;28;20046;-77
2021/01/19 12:25:38;;;;;;;6.55;4.30;;;;;;;;;;5131583;28;20035;-76
2021/01/19 12:28:43;;;;;;;5.97;4.15;;;;;;;;;;5134411;27;20035;-75
2021/01/19 12:31:48;;;;;;;9.90;3.80;;;;;;;;;;5122526;27;20042;-76
2021/01/19 12:34:52;;;;;;;8.48;5.57;;;;;;;;;;5122674;27;20032;-80
2021/01/19 12:37:57;;;;;;;89.88;61.28;;;;;;;;;;5135357;27;20047;-75
2021/01/19 12:41:02;;;;;;;43.78;29.10;;;;;;;;;;5135412;27;20046;-73
2021/01/19 12:44:06;;;;;;;11.20;7.22;;;;;;;;;;5122506;27;20050;-73
2021/01/19 12:47:10;;;;;;;8.13;5.63;;;;;;;;;;5122197;27;20047;-73
2021/01/19 12:50:15;;;;;;;9.95;6.32;;;;;;;;;;5122350;27;20035;-72
2021/01/19 12:53:20;;;;;;;10.13;6.05;;;;;;;;;;5134649;27;20039;-74
2021/01/19 12:56:24;;;;;;;9.50;6.70;;;;;;;;;;5134853;27;20043;-74
2021/01/19 12:59:28;;;;;;;11.05;7.07;;;;;;;;;;5135260;27;20031;-73
2021/01/19 13:02:33;;;;;;;9.60;6.90;;;;;;;;;;5134807;27;20046;-73
2021/01/19 13:05:38;;;;;;;8.02;6.03;;;;;;;;;;5134850;27;20035;-74
2021/01/19 13:08:42;;;;;;;12.68;7.63;;;;;;;;;;5134975;27;20039;-72
2021/01/19 13:11:46;;;;;;;12.90;7.10;;;;;;;;;;5134585;27;20055;-72
2021/01/19 13:14:51;;;;;;;11.15;6.72;;;;;;;;;;5134398;27;20032;-74
2021/01/19 13:17:56;;;;;;;14.98;8.63;;;;;;;;;;5121726;27;20046;-77
2021/01/19 13:21:00;;;;;;;14.18;9.30;;;;;;;;;;5134296;27;20046;-77
2021/01/19 13:24:04;;;;;;;16.83;10.65;;;;;;;;;;5134409;27;20048;-76
2021/01/19 13:27:08;;;;;;;18.02;10.43;;;;;;;;;;5134211;27;20038;-72
2021/01/19 13:30:14;;;;;;;15.77;10.50;;;;;;;;;;5121616;27;20050;-76
2021/01/19 13:33:18;;;;;;;32.97;19.13;;;;;;;;;;5133982;27;20054;-75
2021/01/19 13:36:23;;;;;;;29.90;20.23;;;;;;;;;;5134042;27;20042;-74
2021/01/19 13:39:28;;;;;;;25.02;15.32;;;;;;;;;;5120138;27;20042;-72
2021/01/19 13:42:32;;;;;;;24.67;14.05;;;;;;;;;;5120894;27;20386;-73
2021/01/19 13:45:36;;;;;;;21.48;13.63;;;;;;;;;;5120554;27;20046;-74
2021/01/19 13:48:41;;;;;;;45.30;29.73;;;;;;;;;;5121080;27;20042;-74
2021/01/19 13:51:45;;;;;;;34.03;21.02;;;;;;;;;;5120994;27;20528;-74
2021/01/19 13:54:50;;;;;;;23.15;16.08;;;;;;;;;;5133660;27;20035;-73
2021/01/19 13:57:55;;;;;;;25.00;15.85;;;;;;;;;;5133657;27;20050;-74
2021/01/19 14:00:59;;;;;;;29.35;19.02;;;;;;;;;;5133713;27;20402;-76
2021/01/19 14:04:04;;;;;;;31.50;17.50;;;;;;;;;;5133620;27;20046;-77
2021/01/19 14:07:08;;;;;;;36.72;16.73;;;;;;;;;;5133343;27;20050;-76
2021/01/19 14:10:13;;;;;;;28.73;16.35;;;;;;;;;;5133227;27;20042;-76
2021/01/19 14:13:17;;;;;;;29.48;16.98;;;;;;;;;;5120475;27;20054;-76
2021/01/19 14:16:22;;;;;;;28.02;16.67;;;;;;;;;;5133403;27;20585;-77
2021/01/19 14:19:27;;;;;;;31.33;18.33;;;;;;;;;;5133093;27;20047;-74
2021/01/19 14:22:31;;;;;;;29.23;16.00;;;;;;;;;;5120435;27;20038;-74
2021/01/19 14:25:35;;;;;;;27.52;16.30;;;;;;;;;;5133295;27;20398;-77
2021/01/19 14:28:39;;;;;;;23.55;14.45;;;;;;;;;;5120662;27;20525;-74
2021/01/19 14:31:47;;;;;;;23.05;12.93;;;;;;;;;;5120202;27;20442;-75
2021/01/19 14:34:51;;;;;;;18.38;10.82;;;;;;;;;;5120327;27;20501;-77
2021/01/19 14:37:57;;;;;;;16.85;10.43;;;;;;;;;;5132809;27;20531;-73
2021/01/19 14:41:02;;;;;;;42.45;24.35;;;;;;;;;;5119986;27;20035;-73
2021/01/19 14:44:10;;;;;;;32.00;19.70;;;;;;;;;;5132567;27;20185;-75
2021/01/19 14:47:15;;;;;;;19.60;12.05;;;;;;;;;;5133003;27;20050;-76
2021/01/19 14:50:19;;;;;;;17.40;9.60;;;;;;;;;;5132719;27;20042;-84
2021/01/19 14:53:23;;;;;;;14.25;8.18;;;;;;;;;;5132519;27;20054;-76
2021/01/19 14:56:29;;;;;;;10.98;8.20;;;;;;;;;;5132823;27;20031;-77
2021/01/19 14:59:33;;;;;;;11.57;7.93;;;;;;;;;;5132535;27;20038;-77
2021/01/19 15:02:38;;;;;;;17.42;9.82;;;;;;;;;;5107740;27;20028;-72
2021/01/19 15:05:43;;;;;;;18.48;9.95;;;;;;;;;;5132214;27;20039;-72
2021/01/19 15:08:48;;;;;;;10.30;4.65;;;;;;;;;;5132073;27;20407;-73
2021/01/19 15:11:54;;;;;;;5.28;3.63;;;;;;;;;;5131941;27;20059;-73
2021/01/19 15:14:58;;;;;;;9.32;3.95;;;;;;;;;;5132383;27;20482;-73
2021/01/19 15:18:03;;;;;;;6.85;4.60;;;;;;;;;;5132404;27;20043;-74
2021/01/19 15:21:09;;;;;;;11.30;5.13;;;;;;;;;;5132415;27;20039;-73
2021/01/19 15:24:13;;;;;;;6.88;4.50;;;;;;;;;;5132054;27;20038;-74
2021/01/19 15:27:18;;;;;;;8.65;5.00;;;;;;;;;;5119320;27;20039;-73
2021/01/19 15:30:24;;;;;;;9.57;5.80;;;;;;;;;;5131996;27;20040;-74
2021/01/19 15:33:28;;;;;;;19.40;9.48;;;;;;;;;;5131610;27;20047;-73
2021/01/19 15:36:32;;;;;;;19.50;11.70;;;;;;;;;;5132141;27;20427;-76
2021/01/19 15:39:37;;;;;;;16.73;8.07;;;;;;;;;;5132369;28;20046;-78
2021/01/19 15:42:44;;;;;;;14.00;8.27;;;;;;;;;;5131593;28;20513;-75
2021/01/19 15:45:48;;;;;;;14.68;7.72;;;;;;;;;;5118691;28;20035;-73
2021/01/19 15:48:53;;;;;;;14.63;8.07;;;;;;;;;;5118943;28;20048;-76
2021/01/19 15:51:57;;;;;;;16.60;7.82;;;;;;;;;;5131400;28;20062;-78
2021/01/19 15:55:02;;;;;;;21.45;12.52;;;;;;;;;;5119385;28;20031;-74
2021/01/19 15:58:06;;;;;;;29.23;9.70;;;;;;;;;;5131871;28;20042;-72
2021/01/19 16:01:12;;;;;;;22.80;10.18;;;;;;;;;;5131264;28;20497;-74
2021/01/19 16:04:16;;;;;;;33.88;13.25;;;;;;;;;;5135557;27;20034;-73
2021/01/19 16:07:21;;;;;;;37.08;15.13;;;;;;;;;;5135575;27;20038;-72
2021/01/19 16:10:25;;;;;;;50.35;17.77;;;;;;;;;;5135145;27;20410;-72
2021/01/19 16:13:29;;;;;;;66.57;18.27;;;;;;;;;;5122879;27;20054;-75
2021/01/19 16:16:35;;;;;;;83.22;30.58;;;;;;;;;;5135639;27;20042;-73
2021/01/19 16:19:41;;;;;;;96.82;33.45;;;;;;;;;;5135362;27;20046;-73
2021/01/19 16:22:47;;;;;;;81.18;32.35;;;;;;;;;;5135064;27;20513;-74
2021/01/19 16:25:51;;;;;;;85.40;34.53;;;;;;;;;;5135621;27;20678;-73
2021/01/19 16:28:56;;;;;;;98.45;34.97;;;;;;;;;;5135501;27;20070;-72
2021/01/19 16:32:02;;;;;;;93.38;34.88;;;;;;;;;;5135061;27;20054;-74
2021/01/19 16:35:06;;;;;;;85.82;37.65;;;;;;;;;;5135218;27;20065;-74
2021/01/19 16:38:11;;;;;;;86.20;36.53;;;;;;;;;;5122749;27;20425;-76
2021/01/19 16:41:15;;;;;;;87.90;37.08;;;;;;;;;;5135121;27;20050;-73
2021/01/19 16:44:21;;;;;;;90.82;36.83;;;;;;;;;;5135018;27;20057;-74
2021/01/19 16:47:25;;;;;;;96.13;37.17;;;;;;;;;;5135310;27;20066;-74
2021/01/19 16:50:29;;;;;;;100.22;40.50;;;;;;;;;;5135227;27;20042;-73
2021/01/19 16:53:37;;;;;;;101.20;39.50;;;;;;;;;;5122875;27;20046;-72
2021/01/19 16:56:42;;;;;;;78.72;32.75;;;;;;;;;;5123063;27;20050;-72
2021/01/19 16:59:46;;;;;;;82.22;35.00;;;;;;;;;;5122013;27;20050;-74
2021/01/19 17:02:51;;;;;;;87.63;35.17;;;;;;;;;;5134835;27;20493;-72
2021/01/19 17:05:55;;;;;;;81.05;35.50;;;;;;;;;;5134524;27;20042;-72
2021/01/19 17:09:03;;;;;;;75.88;36.35;;;;;;;;;;5134626;27;20641;-77
2021/01/19 17:12:07;;;;;;;70.65;30.58;;;;;;;;;;5134329;27;20050;-73
2021/01/19 17:15:13;;;;;;;74.53;33.92;;;;;;;;;;5132070;27;20046;-73
2021/01/19 17:18:17;;;;;;;47.50;21.90;;;;;;;;;;5134367;27;20401;-73
2021/01/19 17:21:31;;;;;;;64.93;25.38;;;;;;;;;;5121190;27;20116;-73
2021/01/19 17:24:36;;;;;;;52.75;25.10;;;;;;;;;;5133856;27;20038;-73
2021/01/19 17:27:41;;;;;;;64.72;29.17;;;;;;;;;;5134123;27;20042;-73
2021/01/19 17:30:47;;;;;;;66.75;29.70;;;;;;;;;;5121419;27;20502;-73
2021/01/19 17:33:51;;;;;;;60.30;27.80;;;;;;;;;;5133689;27;20054;-73
2021/01/19 17:36:59;;;;;;;73.60;31.77;;;;;;;;;;5120971;27;20486;-73
2021/01/19 17:40:04;;;;;;;67.07;37.78;;;;;;;;;;5133473;27;20046;-73
2021/01/19 17:43:10;;;;;;;100.53;56.15;;;;;;;;;;5109396;27;20054;-73
2021/01/19 17:46:14;;;;;;;129.13;66.75;;;;;;;;;;5133447;27;20062;-73
2021/01/19 17:49:18;;;;;;;101.63;57.80;;;;;;;;;;5120865;27;20058;-74
2021/01/19 17:52:23;;;;;;;91.03;55.97;;;;;;;;;;5133515;27;20074;-73
2021/01/19 17:55:28;;;;;;;94.47;58.40;;;;;;;;;;5133301;27;20058;-74
2021/01/19 17:58:32;;;;;;;87.57;57.42;;;;;;;;;;5133850;27;20042;-74
2021/01/19 18:01:36;;;;;;;91.30;57.35;;;;;;;;;;5133651;27;20038;-74
2021/01/19 18:04:41;;;;;;;105.95;63.50;;;;;;;;;;5133388;27;20517;-74